createdAt,value
2018-06-22T00:00:27.620Z,8.60
2018-06-22T00:05:31.874Z,6.97
2018-06-22T00:10:36.142Z,9.43
2018-06-22T00:15:40.451Z,8.33
2018-06-22T00:20:44.704Z,6.50
2018-06-22T00:25:48.917Z,7.40
2018-06-22T00:30:53.305Z,9.70
2018-06-22T00:35:57.599Z,8.07
2018-06-22T00:41:02.236Z,7.97
2018-06-22T00:46:06.517Z,5.90
2018-06-22T00:51:10.389Z,4.03
2018-06-22T01:02:25.115Z,6.60
2018-06-22T01:07:29.584Z,4.67
2018-06-22T01:12:33.865Z,8.83
2018-06-22T01:17:38.124Z,10.00
2018-06-22T01:22:42.301Z,9.97
2018-06-22T01:27:46.543Z,5.97
2018-06-22T01:32:50.839Z,8.63
2018-06-22T01:37:55.144Z,9.03
2018-06-22T01:42:59.270Z,6.43
2018-06-22T01:48:03.478Z,7.37
2018-06-22T01:53:07.677Z,10.93
2018-06-22T01:58:11.850Z,7.87
2018-06-22T02:03:15.924Z,4.63
2018-06-22T02:08:20.036Z,6.47
2018-06-22T02:13:24.097Z,9.07
2018-06-22T02:18:28.239Z,9.30
2018-06-22T02:23:32.381Z,12.23
2018-06-22T02:28:36.515Z,9.27
2018-06-22T02:33:40.605Z,7.07
2018-06-22T02:38:45.673Z,6.20
2018-06-22T02:43:49.820Z,12.63
2018-06-22T02:48:53.995Z,6.47
2018-06-22T02:53:58.173Z,8.47
2018-06-22T02:59:02.347Z,4.73
2018-06-22T03:04:06.537Z,11.07
2018-06-22T03:09:11.980Z,5.17
2018-06-22T03:14:16.097Z,7.00
2018-06-22T03:19:20.471Z,6.47
2018-06-22T03:24:24.595Z,7.60
2018-06-22T03:29:43.889Z,8.53
2018-06-22T03:34:53.392Z,8.40
2018-06-22T03:40:09.282Z,8.23
2018-06-22T03:45:21.513Z,3.60
2018-06-22T03:50:34.189Z,7.37
2018-06-22T03:55:43.225Z,8.10
2018-06-22T04:00:48.573Z,12.37
2018-06-22T04:05:52.811Z,12.03
2018-06-22T04:10:56.963Z,10.50
2018-06-22T04:16:01.138Z,10.83
2018-06-22T04:21:05.362Z,9.30
2018-06-22T04:26:11.120Z,9.73
2018-06-22T04:31:15.840Z,9.30
2018-06-22T04:36:19.834Z,7.60
2018-06-22T04:41:23.972Z,9.70
2018-06-22T04:46:28.219Z,9.80
2018-06-22T04:51:32.583Z,8.43
2018-06-22T04:56:36.736Z,5.90
2018-06-22T05:01:40.838Z,5.33
2018-06-22T05:06:44.978Z,9.03
2018-06-22T05:11:49.142Z,13.57
2018-06-22T05:16:53.250Z,8.40
2018-06-22T05:21:57.557Z,11.57
2018-06-22T05:27:03.115Z,9.00
2018-06-22T05:32:07.333Z,11.83
2018-06-22T05:37:11.621Z,7.63
2018-06-22T05:42:15.793Z,6.17
2018-06-22T05:47:19.921Z,9.07
2018-06-22T05:52:24.014Z,11.23
2018-06-22T05:57:28.134Z,16.10
2018-06-22T06:02:32.361Z,10.83
2018-06-22T06:07:36.598Z,12.87
2018-06-22T06:12:40.712Z,12.97
2018-06-22T06:17:44.583Z,6.47
2018-06-22T06:22:48.584Z,10.67
2018-06-22T06:27:52.698Z,7.33
2018-06-22T06:32:56.819Z,8.73
2018-06-22T06:38:00.944Z,10.60
2018-06-22T06:43:05.093Z,8.07
2018-06-22T06:48:09.297Z,13.33
2018-06-22T06:53:13.562Z,11.70
2018-06-22T06:58:17.757Z,12.27
2018-06-22T07:03:21.870Z,13.67
2018-06-22T07:08:26.070Z,9.17
2018-06-22T07:13:30.215Z,8.03
2018-06-22T07:18:34.370Z,8.63
2018-06-22T07:23:38.472Z,9.27
2018-06-22T07:28:43.187Z,12.53
2018-06-22T07:33:47.267Z,9.17
2018-06-22T07:38:51.403Z,17.97
2018-06-22T07:43:55.610Z,15.70
2018-06-22T07:49:03.306Z,12.43
2018-06-22T07:54:07.489Z,18.33
2018-06-22T07:59:11.709Z,13.47
2018-06-22T08:04:16.745Z,14.80
2018-06-22T08:09:21.757Z,8.90
2018-06-22T08:14:25.897Z,14.83
2018-06-22T08:19:30.129Z,18.57
2018-06-22T08:24:34.301Z,16.60
2018-06-22T08:29:38.382Z,17.53
2018-06-22T08:34:42.524Z,17.67
2018-06-22T08:39:47.098Z,13.57
2018-06-22T08:44:51.078Z,12.27
2018-06-22T08:49:55.153Z,8.73
2018-06-22T08:54:59.303Z,9.77
2018-06-22T09:00:04.084Z,14.00
2018-06-22T09:05:08.435Z,13.23
2018-06-22T09:10:12.573Z,13.87
2018-06-22T09:15:16.711Z,16.27
2018-06-22T09:20:20.839Z,14.97
2018-06-22T09:25:25.007Z,10.73
2018-06-22T09:30:29.177Z,12.80
2018-06-22T09:35:33.293Z,12.57
2018-06-22T09:40:38.368Z,11.77
2018-06-22T09:45:42.447Z,10.03
2018-06-22T09:50:46.815Z,9.33
2018-06-22T09:55:51.076Z,11.97
2018-06-22T10:01:13.663Z,10.43
2018-06-22T10:06:17.778Z,8.23
2018-06-22T10:11:22.207Z,9.97
2018-06-22T10:16:26.342Z,14.53
2018-06-22T10:21:30.740Z,8.53
2018-06-22T10:26:34.886Z,9.93
2018-06-22T10:31:39.422Z,10.77
2018-06-22T10:36:43.549Z,13.13
2018-06-22T10:41:47.691Z,10.30
2018-06-22T10:46:51.854Z,9.23
2018-06-22T10:51:55.927Z,7.67
2018-06-22T10:57:00.238Z,8.57
2018-06-22T11:02:04.387Z,9.27
2018-06-22T11:07:08.494Z,7.83
2018-06-22T11:12:12.708Z,7.70
2018-06-22T11:17:16.879Z,7.40
2018-06-22T11:22:21.039Z,6.13
2018-06-22T11:27:25.310Z,7.13
2018-06-22T11:32:29.952Z,4.73
2018-06-22T11:37:34.190Z,6.93
2018-06-22T11:42:38.381Z,6.33
2018-06-22T11:47:42.654Z,5.53
2018-06-22T11:52:47.223Z,4.47
2018-06-22T11:57:59.404Z,5.83
2018-06-22T12:03:03.726Z,6.93
2018-06-22T12:08:08.137Z,5.03
2018-06-22T12:13:12.347Z,6.00
2018-06-22T12:18:16.455Z,4.37
2018-06-22T12:23:20.747Z,5.77
2018-06-22T12:28:25.996Z,5.27
2018-06-22T12:33:30.167Z,4.70
2018-06-22T12:38:34.376Z,4.40
2018-06-22T12:43:38.476Z,5.20
2018-06-22T12:48:42.630Z,5.43
2018-06-22T12:53:46.834Z,5.13
2018-06-22T12:58:56.754Z,4.93
2018-06-22T13:04:00.941Z,6.73
2018-06-22T13:09:08.412Z,4.50
2018-06-22T13:14:12.889Z,4.83
2018-06-22T13:19:17.181Z,3.90
2018-06-22T13:24:22.426Z,3.73
2018-06-22T13:29:26.579Z,4.40
2018-06-22T13:34:30.400Z,5.87
2018-06-22T13:39:34.450Z,5.83
2018-06-22T13:44:38.670Z,6.97
2018-06-22T13:49:42.870Z,9.17
2018-06-22T13:54:48.153Z,6.17
2018-06-22T13:59:52.420Z,5.17
2018-06-22T14:05:02.292Z,5.03
2018-06-22T14:10:06.410Z,5.80
2018-06-22T14:15:10.703Z,3.60
2018-06-22T14:20:15.770Z,8.17
2018-06-22T14:25:19.676Z,8.17
2018-06-22T14:30:23.916Z,7.87
2018-06-22T14:35:28.490Z,4.03
2018-06-22T14:40:33.096Z,5.60
2018-06-22T14:45:37.847Z,3.57
2018-06-22T14:50:42.351Z,6.00
2018-06-22T14:55:52.144Z,5.93
2018-06-22T15:01:02.067Z,7.33
2018-06-22T15:06:12.926Z,4.10
2018-06-22T15:11:17.422Z,5.53
2018-06-22T15:16:21.821Z,3.67
2018-06-22T15:21:26.138Z,3.57
2018-06-22T15:26:30.424Z,6.90
2018-06-22T15:31:34.711Z,4.20
2018-06-22T15:36:44.097Z,6.23
2018-06-22T15:41:53.727Z,6.47
2018-06-22T15:47:03.142Z,8.27
2018-06-22T15:52:12.829Z,5.77
2018-06-22T15:57:18.543Z,4.33
2018-06-22T16:02:27.786Z,4.43
2018-06-22T16:07:32.249Z,9.20
2018-06-22T16:12:38.379Z,7.53
2018-06-22T16:17:47.784Z,3.87
2018-06-22T16:22:57.193Z,4.97
2018-06-22T16:28:02.700Z,8.37
2018-06-22T16:33:15.938Z,5.47
2018-06-22T16:38:20.292Z,4.37
2018-06-22T16:43:26.306Z,7.43
2018-06-22T16:48:30.539Z,5.40
2018-06-22T16:53:34.761Z,7.37
2018-06-22T16:58:39.966Z,5.43
2018-06-22T17:03:44.171Z,6.37
2018-06-22T17:08:53.583Z,3.70
2018-06-22T17:14:03.005Z,5.77
2018-06-22T17:19:07.156Z,7.33
2018-06-22T17:24:11.076Z,5.17
2018-06-22T17:29:17.357Z,7.53
2018-06-22T17:34:21.502Z,9.93
2018-06-22T17:39:25.545Z,6.97
2018-06-22T17:44:29.647Z,7.37
2018-06-22T17:49:33.999Z,4.63
2018-06-22T17:54:38.063Z,5.40
2018-06-22T17:59:47.440Z,8.27
2018-06-22T18:04:57.677Z,4.30
2018-06-22T18:10:07.013Z,8.57
2018-06-22T18:15:11.113Z,8.13
2018-06-22T18:20:15.812Z,6.33
2018-06-22T18:25:19.840Z,7.93
2018-06-22T18:30:23.662Z,10.10
